Time,TemperatureF,DewpointF,PressureIn,WindDirection,WindDirectionDegrees,WindSpeedMPH,WindSpeedGustMPH,Humidity,HourlyPrecipIn,Conditions,Clouds,dailyrainin,SoftwareType,DateUTC
2013-02-07 00:01:00,36.0,34.0,-100.00,East,85,0.0,1.0,92,-99.99,,,-99.99,,2013-02-07 08:01:00,
2013-02-07 00:11:00,36.0,34.0,-100.00,East,85,0.0,1.0,92,-99.99,,,-99.99,,2013-02-07 08:11:00,
2013-02-07 01:01:00,36.0,34.0,-100.00,SSW,210,2.0,3.0,92,-99.99,,,-99.99,,2013-02-07 09:01:00,
2013-02-07 01:11:00,36.0,34.0,-100.00,SSW,210,2.0,3.0,92,-99.99,,,-99.99,,2013-02-07 09:11:00,
2013-02-07 02:01:00,36.0,34.0,-100.00,East,95,0.0,1.0,92,-99.99,,,-99.99,,2013-02-07 10:01:00,
2013-02-07 03:01:00,35.0,34.0,-100.00,North,-999,0.0,0.0,96,-99.99,,,-99.99,,2013-02-07 11:01:00,
2013-02-07 03:11:00,35.0,34.0,-100.00,North,-999,0.0,0.0,96,-99.99,,,-99.99,,2013-02-07 11:11:00,
2013-02-07 04:02:00,34.0,33.0,-100.00,North,-999,0.0,0.0,96,-99.99,,,-99.99,,2013-02-07 12:02:00,
2013-02-07 05:10:00,33.0,32.0,-100.00,SSE,150,0.0,1.0,96,-99.99,,,-99.99,,2013-02-07 13:10:00,
2013-02-07 06:01:00,33.0,32.0,-100.00,SSE,150,0.0,1.0,96,-99.99,,,-99.99,,2013-02-07 14:01:00,
2013-02-07 07:01:00,36.0,35.0,-100.00,WSW,245,2.0,3.0,96,-99.99,,,-99.99,,2013-02-07 15:01:00,
2013-02-07 07:11:00,36.0,35.0,-100.00,WSW,245,2.0,3.0,96,-99.99,,,-99.99,,2013-02-07 15:11:00,
2013-02-07 08:01:00,35.0,34.0,-100.00,SE,145,1.0,7.0,96,-99.99,,,-99.99,,2013-02-07 16:01:00,
2013-02-07 08:10:00,35.0,34.0,-100.00,North,5,0.0,5.0,96,-99.99,,,-99.99,,2013-02-07 16:10:00,
2013-02-07 09:01:00,35.0,34.0,-100.00,North,5,0.0,5.0,96,-99.99,,,-99.99,,2013-02-07 17:01:00,
2013-02-07 10:01:00,36.0,35.0,-100.00,SE,135,0.0,3.0,96,-99.99,,,-99.99,,2013-02-07 18:01:00,
2013-02-07 10:10:00,43.0,37.0,-100.00,ESE,115,3.0,7.0,79,-99.99,,,-99.99,,2013-02-07 18:10:00,
2013-02-07 11:00:00,48.0,33.0,-100.00,East,100,5.0,9.0,55,-99.99,,,-99.99,,2013-02-07 19:00:00,
2013-02-07 11:01:00,43.0,37.0,-100.00,ESE,115,3.0,7.0,79,-99.99,,,-99.99,,2013-02-07 19:01:00,
2013-02-07 12:10:00,50.0,29.0,-100.00,SE,125,3.0,9.0,44,-99.99,,,-99.99,,2013-02-07 20:10:00,
2013-02-07 13:01:00,50.0,29.0,-100.00,SE,125,3.0,9.0,44,-99.99,,,-99.99,,2013-02-07 21:01:00,
2013-02-07 13:20:00,51.0,27.0,-100.00,ESE,110,7.0,13.0,39,-99.99,,,-99.99,,2013-02-07 21:20:00,
2013-02-07 14:02:00,51.0,27.0,-100.00,ESE,110,7.0,13.0,39,-99.99,,,-99.99,,2013-02-07 22:02:00,
2013-02-07 14:10:00,51.0,24.0,-100.00,East,80,7.0,13.0,34,-99.99,,,-99.99,,2013-02-07 22:10:00,
2013-02-07 14:11:00,51.0,27.0,-100.00,ESE,110,7.0,13.0,39,-99.99,,,-99.99,,2013-02-07 22:11:00,
2013-02-07 15:01:00,51.0,24.0,-100.00,East,80,7.0,13.0,34,-99.99,,,-99.99,,2013-02-07 23:01:00,
2013-02-07 16:01:00,52.0,24.0,-100.00,ENE,60,5.0,9.0,33,-99.99,,,-99.99,,2013-02-08 00:01:00,
2013-02-07 16:10:00,50.0,25.0,-100.00,East,90,3.0,7.0,37,-99.99,,,-99.99,,2013-02-08 00:10:00,
2013-02-07 16:11:00,52.0,24.0,-100.00,ENE,60,5.0,9.0,33,-99.99,,,-99.99,,2013-02-08 00:11:00,
2013-02-07 17:01:00,50.0,25.0,-100.00,East,90,3.0,7.0,37,-99.99,,,-99.99,,2013-02-08 01:01:00,
2013-02-07 18:01:00,44.0,25.0,-100.00,North,10,2.0,6.0,46,-99.99,,,-99.99,,2013-02-08 02:01:00,
2013-02-07 18:11:00,44.0,25.0,-100.00,North,10,2.0,6.0,46,-99.99,,,-99.99,,2013-02-08 02:11:00,
2013-02-07 19:01:00,42.0,25.0,-100.00,SE,140,3.0,9.0,50,-99.99,,,-99.99,,2013-02-08 03:01:00,
2013-02-07 20:01:00,40.0,26.0,-100.00,South,175,3.0,9.0,57,-99.99,,,-99.99,,2013-02-08 04:01:00,
2013-02-07 20:11:00,40.0,26.0,-100.00,South,175,3.0,9.0,57,-99.99,,,-99.99,,2013-02-08 04:11:00,
2013-02-07 21:02:00,39.0,26.0,-100.00,North,5,3.0,9.0,59,-99.99,,,-99.99,,2013-02-08 05:02:00,
2013-02-07 22:01:00,38.0,26.0,-100.00,South,170,3.0,7.0,61,-99.99,,,-99.99,,2013-02-08 06:01:00,
2013-02-07 22:11:00,38.0,26.0,-100.00,South,170,3.0,7.0,61,-99.99,,,-99.99,,2013-02-08 06:11:00,
2013-02-07 23:01:00,37.0,26.0,-100.00,North,360,5.0,9.0,64,-99.99,,,-99.99,,2013-02-08 07:01:00,